Time;durP1;ratioP1;P1;durP2;ratioP2;P2;SDS_P1;SDS_P2;PMS_P1;PMS_P2;Temp;Humidity;BMP_temperature;BMP_pressure;BME280_temperature;BME280_humidity;BME280_pressure;Samples;Min_cycle;Max_cycle;Signal;HPM_P1;HPM_P2
2021/12/22 00:03:21;;;;;;;2.10;1.90;;;17.40;61.40;;;;;;10448952;28;20193;-62
2021/12/22 00:08:43;;;;;;;2.60;1.83;;;17.40;61.40;;;;;;10408669;28;20446;-62
2021/12/22 00:14:05;;;;;;;2.70;2.23;;;17.50;61.40;;;;;;10438513;28;20221;-63
2021/12/22 00:19:29;;;;;;;2.87;2.20;;;17.40;61.30;;;;;;10458840;28;20221;-62
2021/12/22 00:24:51;;;;;;;2.40;2.13;;;17.50;61.40;;;;;;10457712;28;20200;-62
2021/12/22 00:30:13;;;;;;;2.60;1.93;;;17.40;61.30;;;;;;10456888;28;20252;-62
2021/12/22 00:35:43;;;;;;;2.13;1.83;;;17.50;61.40;;;;;;10457024;28;20589;-62
2021/12/22 00:41:05;;;;;;;2.57;2.00;;;17.40;61.30;;;;;;10457579;28;20582;-63
2021/12/22 00:46:27;;;;;;;1.60;1.50;;;17.50;61.40;;;;;;10457041;28;20189;-61
2021/12/22 00:51:51;;;;;;;2.40;1.87;;;17.40;61.30;;;;;;10457070;28;20566;-63
2021/12/22 00:57:15;;;;;;;2.30;1.90;;;17.50;61.30;;;;;;10455922;28;20706;-63
2021/12/22 01:02:37;;;;;;;2.03;1.83;;;17.40;61.30;;;;;;10455861;28;20540;-62
2021/12/22 01:08:01;;;;;;;2.07;1.70;;;17.40;61.20;;;;;;10456188;28;20567;-63
2021/12/22 01:13:23;;;;;;;1.80;1.70;;;17.40;61.20;;;;;;10454269;28;20248;-63
2021/12/22 01:18:45;;;;;;;1.70;1.60;;;17.50;61.20;;;;;;10456298;28;20252;-63
2021/12/22 01:24:20;;;;;;;2.20;1.80;;;17.40;61.10;;;;;;10454763;28;20189;-63
2021/12/22 01:29:42;;;;;;;2.30;1.60;;;17.50;61.20;;;;;;10454489;28;20225;-62
2021/12/22 01:35:08;;;;;;;1.80;1.60;;;17.40;61.10;;;;;;10454093;28;20900;-63
2021/12/22 01:40:33;;;;;;;2.60;1.70;;;17.40;61.10;;;;;;10454232;28;20209;-63
2021/12/22 01:46:20;;;;;;;2.10;1.60;;;17.40;61.10;;;;;;10454681;28;20201;-62
2021/12/22 01:51:54;;;;;;;1.63;1.50;;;17.50;61.20;;;;;;10454143;28;20208;-62
2021/12/22 01:57:19;;;;;;;1.97;1.50;;;17.40;61.10;;;;;;10454359;28;20219;-62
2021/12/22 02:02:41;;;;;;;1.90;1.70;;;17.40;61.10;;;;;;10453965;28;20194;-63
2021/12/22 02:08:07;;;;;;;1.60;1.50;;;17.40;61.10;;;;;;10453654;28;20232;-62
2021/12/22 02:13:35;;;;;;;1.57;1.43;;;17.40;61.10;;;;;;10444872;28;20320;-63
2021/12/22 02:18:59;;;;;;;1.53;1.30;;;17.50;61.10;;;;;;10453225;28;20343;-63
2021/12/22 02:24:23;;;;;;;1.70;1.50;;;17.40;61.00;;;;;;10453489;28;20197;-62
2021/12/22 02:29:47;;;;;;;1.67;1.50;;;17.40;61.00;;;;;;10452519;28;20229;-63
2021/12/22 02:35:10;;;;;;;1.60;1.30;;;17.40;61.00;;;;;;10451559;28;20217;-62
2021/12/22 02:40:34;;;;;;;2.07;1.60;;;17.40;61.00;;;;;;10451224;28;20210;-63
2021/12/22 02:45:56;;;;;;;2.00;1.43;;;17.40;61.00;;;;;;10452263;28;20201;-62
2021/12/22 02:51:19;;;;;;;1.53;1.43;;;17.40;61.00;;;;;;10451670;28;20217;-62
2021/12/22 02:56:55;;;;;;;2.20;1.60;;;17.40;61.00;;;;;;10452051;28;20216;-61
2021/12/22 03:02:27;;;;;;;1.70;1.60;;;17.40;61.00;;;;;;10452235;28;20276;-62
2021/12/22 03:07:50;;;;;;;1.67;1.30;;;17.40;61.00;;;;;;10450090;28;20619;-62
2021/12/22 03:13:13;;;;;;;2.57;1.63;;;17.40;61.00;;;;;;10451329;28;20213;-62
2021/12/22 03:18:36;;;;;;;2.03;1.20;;;17.40;60.90;;;;;;10450793;28;20227;-63
2021/12/22 03:23:58;;;;;;;1.80;1.60;;;17.40;60.90;;;;;;10449885;28;20567;-62
2021/12/22 03:29:21;;;;;;;1.60;1.40;;;17.40;60.90;;;;;;10449172;28;20225;-63
2021/12/22 03:34:44;;;;;;;1.47;1.37;;;17.40;60.90;;;;;;10449689;28;20224;-62
2021/12/22 03:40:07;;;;;;;1.70;1.40;;;17.40;60.90;;;;;;10450443;28;20212;-63
2021/12/22 03:45:30;;;;;;;1.83;1.50;;;17.40;60.90;;;;;;10450679;28;20192;-62
2021/12/22 03:50:53;;;;;;;1.67;1.57;;;17.40;60.90;;;;;;10450048;28;20591;-62
2021/12/22 03:56:16;;;;;;;1.50;1.40;;;17.40;60.90;;;;;;10409436;28;20218;-62
2021/12/22 04:01:39;;;;;;;3.13;1.70;;;17.40;60.90;;;;;;10419017;28;20197;-63
2021/12/22 04:07:01;;;;;;;1.53;1.40;;;17.40;60.90;;;;;;10450123;28;20581;-62
2021/12/22 04:12:23;;;;;;;1.60;1.50;;;17.40;60.80;;;;;;10449712;28;20201;-63
2021/12/22 04:17:47;;;;;;;1.80;1.50;;;17.40;60.80;;;;;;10449708;28;20216;-63
2021/12/22 04:23:09;;;;;;;1.47;1.33;;;17.40;60.80;;;;;;10448711;28;20181;-63
2021/12/22 04:28:32;;;;;;;1.50;1.40;;;17.40;60.80;;;;;;10447169;22;20597;-69
2021/12/22 04:33:56;;;;;;;1.83;1.50;;;17.40;60.80;;;;;;10409130;28;20210;-69
2021/12/22 04:39:18;;;;;;;1.83;1.43;;;17.40;60.70;;;;;;10408717;28;20244;-68
2021/12/22 04:44:40;;;;;;;1.93;1.63;;;17.40;60.80;;;;;;10369739;28;20205;-68
2021/12/22 04:50:09;;;;;;;1.70;1.43;;;17.40;60.80;;;;;;10395090;28;20229;-69
2021/12/22 04:55:31;;;;;;;1.50;1.40;;;17.40;60.70;;;;;;10401792;28;20222;-68
2021/12/22 05:00:53;;;;;;;1.80;1.27;;;17.40;60.60;;;;;;10409801;28;20233;-68
2021/12/22 05:06:17;;;;;;;2.10;1.60;;;17.40;60.60;;;;;;10411526;28;20210;-68
2021/12/22 05:11:40;;;;;;;1.50;1.40;;;17.40;60.60;;;;;;10410507;28;20198;-68
2021/12/22 05:17:05;;;;;;;1.73;1.50;;;17.40;60.70;;;;;;10411568;28;20228;-68
2021/12/22 05:22:29;;;;;;;1.90;1.47;;;17.40;60.70;;;;;;10410468;28;20198;-68
2021/12/22 05:27:51;;;;;;;2.03;1.83;;;17.40;61.30;;;;;;10411883;28;20303;-69
2021/12/22 05:33:13;;;;;;;1.90;1.70;;;17.40;60.70;;;;;;10411930;28;20201;-68
2021/12/22 05:38:37;;;;;;;1.90;1.47;;;17.40;60.70;;;;;;10414059;28;20475;-68
2021/12/22 05:43:59;;;;;;;1.40;1.30;;;17.40;60.70;;;;;;10412314;28;20202;-68
2021/12/22 05:49:21;;;;;;;1.50;1.40;;;17.40;60.70;;;;;;10414009;28;20225;-68
2021/12/22 05:54:45;;;;;;;1.47;1.30;;;17.40;60.70;;;;;;10411216;28;20225;-68
2021/12/22 06:00:09;;;;;;;1.60;1.50;;;17.40;60.60;;;;;;10414568;28;20291;-69
2021/12/22 06:05:31;;;;;;;1.60;1.50;;;17.40;60.60;;;;;;10416055;28;20190;-68
2021/12/22 06:10:54;;;;;;;1.80;1.70;;;17.40;60.70;;;;;;10415663;28;20221;-68
2021/12/22 06:16:16;;;;;;;1.90;1.70;;;17.40;60.70;;;;;;10407185;28;20222;-68
2021/12/22 06:21:39;;;;;;;1.50;1.40;;;17.40;60.80;;;;;;10414865;28;20225;-68
2021/12/22 06:27:02;;;;;;;1.60;1.50;;;17.40;60.80;;;;;;10413486;28;20218;-67
2021/12/22 06:32:24;;;;;;;1.70;1.60;;;17.40;60.70;;;;;;10417697;28;20194;-69
2021/12/22 06:37:47;;;;;;;2.90;1.53;;;17.40;60.70;;;;;;10413076;28;20232;-68
2021/12/22 06:43:11;;;;;;;2.53;1.63;;;17.40;60.70;;;;;;10377729;28;20209;-68
2021/12/22 06:48:33;;;;;;;1.67;1.57;;;17.40;60.60;;;;;;10411955;28;20218;-69
2021/12/22 06:53:55;;;;;;;1.70;1.40;;;17.40;60.60;;;;;;10411173;28;20217;-69
2021/12/22 06:59:18;;;;;;;1.50;1.40;;;17.40;60.50;;;;;;10408887;28;20221;-69
2021/12/22 07:04:41;;;;;;;3.23;2.50;;;17.40;60.50;;;;;;10407735;28;20197;-69
2021/12/22 07:10:07;;;;;;;6.00;5.10;;;17.40;59.50;;;;;;10405324;28;20225;-69
2021/12/22 07:15:30;;;;;;;6.97;6.27;;;17.40;54.90;;;;;;10420352;28;20353;-68
2021/12/22 07:20:53;;;;;;;4.83;4.00;;;17.40;51.10;;;;;;10422885;28;20222;-68
2021/12/22 07:26:15;;;;;;;4.07;3.60;;;17.30;53.80;;;;;;10419249;28;20219;-68
2021/12/22 07:31:39;;;;;;;4.07;3.60;;;17.30;54.90;;;;;;10424766;28;20211;-68
2021/12/22 07:37:09;;;;;;;3.53;3.10;;;17.30;55.60;;;;;;10420050;28;20735;-67
2021/12/22 07:42:31;;;;;;;3.33;2.73;;;17.30;56.80;;;;;;10413890;28;20197;-67
2021/12/22 07:47:55;;;;;;;2.80;2.53;;;17.30;57.00;;;;;;10413976;28;20222;-67
2021/12/22 07:53:17;;;;;;;2.10;1.90;;;17.30;57.10;;;;;;10422117;28;20201;-66
2021/12/22 07:58:39;;;;;;;2.43;2.23;;;17.40;57.50;;;;;;10429394;28;20226;-68
2021/12/22 08:04:03;;;;;;;2.87;2.23;;;17.40;57.70;;;;;;10419156;28;20660;-67
2021/12/22 08:09:26;;;;;;;2.20;2.00;;;17.30;57.80;;;;;;10421335;28;20218;-67
2021/12/22 08:14:48;;;;;;;2.10;1.90;;;17.30;58.00;;;;;;10410866;28;20214;-67
2021/12/22 08:20:13;;;;;;;2.13;1.87;;;17.30;58.10;;;;;;10413737;28;20226;-67
2021/12/22 08:25:35;;;;;;;2.47;2.00;;;17.30;58.20;;;;;;10417845;28;20203;-67
2021/12/22 08:30:57;;;;;;;2.13;1.83;;;17.40;58.30;;;;;;10414309;28;20236;-67
2021/12/22 08:42:03;;;;;;;1.73;1.60;;;17.30;58.40;;;;;;10431964;28;20572;-67
2021/12/22 08:47:25;;;;;;;2.00;1.70;;;17.40;58.60;;;;;;10431507;28;20213;-67
2021/12/22 08:52:49;;;;;;;2.13;1.63;;;17.30;58.60;;;;;;10431647;28;20584;-67
2021/12/22 08:58:11;;;;;;;2.57;1.60;;;17.40;58.70;;;;;;10437312;28;20224;-67
2021/12/22 09:03:33;;;;;;;1.50;1.37;;;17.30;58.70;;;;;;10432212;28;20656;-67
2021/12/22 09:08:58;;;;;;;1.50;1.40;;;17.30;58.80;;;;;;10428701;28;20221;-67
2021/12/22 09:14:22;;;;;;;1.77;1.67;;;17.30;58.80;;;;;;10413464;28;20249;-67
2021/12/22 09:19:44;;;;;;;2.17;1.37;;;17.30;58.80;;;;;;10431483;28;20244;-67
2021/12/22 09:25:09;;;;;;;1.63;1.30;;;17.30;59.00;;;;;;10424489;28;20200;-67
2021/12/22 09:30:35;;;;;;;1.77;1.50;;;17.40;59.00;;;;;;10411779;28;20256;-68
2021/12/22 09:35:57;;;;;;;1.40;1.30;;;17.30;58.70;;;;;;10431900;28;20225;-68
2021/12/22 09:41:22;;;;;;;1.97;1.57;;;17.30;58.20;;;;;;10421262;28;20224;-67
2021/12/22 09:46:45;;;;;;;1.63;1.50;;;17.30;58.40;;;;;;10425332;28;20808;-68
2021/12/22 09:52:18;;;;;;;1.37;1.27;;;17.30;58.40;;;;;;10428593;28;20197;-68
2021/12/22 09:57:42;;;;;;;1.53;1.43;;;17.30;59.20;;;;;;10426589;28;20214;-68
2021/12/22 10:03:05;;;;;;;1.73;1.60;;;17.20;58.70;;;;;;10429945;28;20204;-68
2021/12/22 10:08:28;;;;;;;1.30;1.20;;;17.30;58.80;;;;;;10433509;28;20228;-67
2021/12/22 10:13:52;;;;;;;1.53;1.30;;;17.20;58.70;;;;;;10425795;28;20797;-68
2021/12/22 10:19:14;;;;;;;1.83;1.37;;;17.20;58.90;;;;;;10435271;28;20217;-67
2021/12/22 10:24:39;;;;;;;1.40;1.30;;;17.20;58.90;;;;;;10421094;28;20202;-68
2021/12/22 10:30:21;;;;;;;1.70;1.30;;;17.20;58.90;;;;;;10452325;22;20225;-72
2021/12/22 10:35:46;;;;;;;1.60;1.20;;;17.30;58.70;;;;;;10448973;28;20224;-74
2021/12/22 10:41:10;;;;;;;1.50;1.30;;;17.30;59.60;;;;;;10450586;28;20217;-74
2021/12/22 10:46:35;;;;;;;1.50;1.40;;;17.40;59.80;;;;;;10442390;28;20200;-74
2021/12/22 10:52:00;;;;;;;1.30;1.20;;;17.40;59.70;;;;;;10450226;28;20232;-73
2021/12/22 10:57:23;;;;;;;1.30;1.20;;;17.30;59.60;;;;;;10451869;28;20596;-73
2021/12/22 11:03:02;;;;;;;1.43;1.27;;;17.40;59.60;;;;;;10452235;28;20224;-74
2021/12/22 11:08:25;;;;;;;1.97;1.40;;;17.40;59.40;;;;;;10439404;28;20700;-71
2021/12/22 11:14:03;;;;;;;1.67;1.40;;;17.40;59.60;;;;;;10450672;28;20201;-72
2021/12/22 11:19:28;;;;;;;1.30;1.20;;;17.40;59.50;;;;;;10450843;28;20216;-71
2021/12/22 11:24:52;;;;;;;1.50;1.40;;;17.40;59.60;;;;;;10450747;28;20726;-71
2021/12/22 11:30:14;;;;;;;1.30;1.20;;;17.40;59.60;;;;;;10449829;28;20648;-69
2021/12/22 11:35:40;;;;;;;1.43;1.30;;;17.40;59.50;;;;;;10447428;28;20208;-71
2021/12/22 11:41:12;;;;;;;1.20;1.10;;;17.40;59.60;;;;;;10450742;28;20727;-71
2021/12/22 11:46:36;;;;;;;2.27;1.33;;;17.40;59.60;;;;;;10438031;28;20189;-71
2021/12/22 11:51:59;;;;;;;1.20;1.10;;;17.40;59.50;;;;;;10447175;28;20240;-73
2021/12/22 11:57:22;;;;;;;1.40;1.20;;;17.40;59.50;;;;;;10449219;28;20221;-70
2021/12/22 12:02:44;;;;;;;2.10;1.90;;;17.50;59.60;;;;;;10447395;28;20220;-71
2021/12/22 12:08:17;;;;;;;38.87;20.20;;;17.40;59.50;;;;;;10461578;28;20192;-71
2021/12/22 12:13:48;;;;;;;62.47;31.57;;;17.40;59.40;;;;;;10460551;28;20703;-71
2021/12/22 12:25:09;;;;;;;26.77;15.27;;;17.40;59.40;;;;;;10452190;28;20223;-71
2021/12/22 12:30:45;;;;;;;29.30;15.93;;;17.40;59.30;;;;;;10462635;28;20722;-70
2021/12/22 12:36:11;;;;;;;25.43;14.60;;;17.40;59.20;;;;;;10460952;28;20224;-69
2021/12/22 12:41:35;;;;;;;26.77;14.27;;;17.40;59.20;;;;;;10458153;28;20300;-71
2021/12/22 12:46:58;;;;;;;21.30;12.37;;;17.40;59.20;;;;;;10449937;28;20193;-72
2021/12/22 12:52:26;;;;;;;22.17;12.43;;;17.40;59.20;;;;;;10460497;28;20216;-71
2021/12/22 12:57:50;;;;;;;22.50;10.87;;;17.40;59.10;;;;;;10461104;28;20232;-70
2021/12/22 13:03:12;;;;;;;19.00;11.73;;;17.40;59.00;;;;;;10462577;28;20222;-70
2021/12/22 13:08:35;;;;;;;19.30;10.53;;;17.40;59.20;;;;;;10459744;28;20216;-70
2021/12/22 13:19:41;;;;;;;17.73;9.10;;;17.30;59.50;;;;;;10452255;28;20221;-70
2021/12/22 13:25:09;;;;;;;14.80;8.57;;;17.30;59.60;;;;;;10438330;28;20207;-69
2021/12/22 13:30:34;;;;;;;14.40;8.47;;;17.30;59.30;;;;;;10450807;28;20707;-69
2021/12/22 13:35:58;;;;;;;15.87;8.47;;;17.30;59.30;;;;;;10438128;28;20228;-69
2021/12/22 13:41:22;;;;;;;12.10;7.73;;;17.30;59.20;;;;;;10440362;28;20217;-69
2021/12/22 13:46:48;;;;;;;15.37;8.33;;;17.30;59.60;;;;;;10434269;28;20899;-71
2021/12/22 13:52:10;;;;;;;11.10;7.33;;;17.40;59.40;;;;;;10439521;28;20228;-72
2021/12/22 13:57:32;;;;;;;12.77;7.07;;;17.40;59.80;;;;;;10453669;28;20223;-69
2021/12/22 14:02:55;;;;;;;12.33;6.67;;;17.50;59.70;;;;;;10454524;28;20713;-72
2021/12/22 14:08:24;;;;;;;13.27;7.70;;;17.50;59.70;;;;;;10446971;28;20208;-71
2021/12/22 14:13:46;;;;;;;11.13;6.30;;;17.50;59.60;;;;;;10441980;28;20197;-71
2021/12/22 14:19:16;;;;;;;10.33;6.37;;;17.50;59.60;;;;;;10444856;28;20216;-71
2021/12/22 14:24:41;;;;;;;10.87;6.13;;;17.50;59.50;;;;;;10434003;28;20212;-71
2021/12/22 14:30:07;;;;;;;9.27;5.60;;;17.50;59.60;;;;;;10445692;28;20235;-72
2021/12/22 14:35:33;;;;;;;9.23;5.33;;;17.50;59.60;;;;;;10443252;28;20227;-72
2021/12/22 14:40:56;;;;;;;11.13;5.37;;;17.50;59.60;;;;;;10452247;28;20217;-72
2021/12/22 14:46:31;;;;;;;10.40;5.57;;;17.50;59.50;;;;;;10442681;28;20201;-72
2021/12/22 14:52:05;;;;;;;9.13;5.03;;;17.60;59.30;;;;;;10443081;28;20232;-72
2021/12/22 14:57:29;;;;;;;6.77;4.67;;;17.50;59.20;;;;;;10449677;28;20232;-71
2021/12/22 15:02:51;;;;;;;8.07;5.10;;;17.50;59.40;;;;;;10449341;28;20221;-72
2021/12/22 15:08:14;;;;;;;9.07;4.97;;;17.50;59.50;;;;;;10449029;28;20205;-71
2021/12/22 15:13:37;;;;;;;6.23;4.60;;;17.50;59.50;;;;;;10449692;28;20197;-70
2021/12/22 15:19:01;;;;;;;6.17;4.10;;;17.50;60.30;;;;;;10453523;28;20307;-72
2021/12/22 15:24:24;;;;;;;6.30;4.20;;;17.50;59.70;;;;;;10436760;28;20204;-72
2021/12/22 15:29:46;;;;;;;4.90;3.97;;;17.50;59.80;;;;;;10443945;28;20220;-72
2021/12/22 15:35:10;;;;;;;5.57;3.63;;;17.50;59.80;;;;;;10449921;28;20875;-71
2021/12/22 15:40:35;;;;;;;5.40;4.13;;;17.50;59.90;;;;;;10443468;28;20217;-72
2021/12/22 15:45:57;;;;;;;7.07;6.33;;;17.50;59.90;;;;;;10433950;28;20208;-70
2021/12/22 15:51:19;;;;;;;5.20;4.03;;;17.40;54.50;;;;;;10450339;28;20225;-69
2021/12/22 15:56:42;;;;;;;4.43;3.47;;;17.40;56.80;;;;;;10449662;28;20224;-70
2021/12/22 16:02:05;;;;;;;5.57;4.47;;;17.40;58.00;;;;;;10436662;28;20229;-68
2021/12/22 16:07:27;;;;;;;4.23;3.60;;;17.40;58.30;;;;;;10446151;28;20201;-70
2021/12/22 16:12:51;;;;;;;4.37;3.50;;;17.50;58.30;;;;;;10450326;28;20228;-69
2021/12/22 16:18:13;;;;;;;3.57;2.90;;;17.50;58.40;;;;;;10448962;28;20217;-70
2021/12/22 16:23:35;;;;;;;4.20;3.17;;;17.50;58.40;;;;;;10449599;28;20248;-70
2021/12/22 16:28:59;;;;;;;4.30;3.40;;;17.50;58.40;;;;;;10449683;28;20224;-70
2021/12/22 16:34:21;;;;;;;3.33;2.97;;;17.50;58.40;;;;;;10435582;28;20204;-71
2021/12/22 16:39:43;;;;;;;3.57;3.07;;;17.50;58.40;;;;;;10448736;28;20224;-69
2021/12/22 16:45:08;;;;;;;4.50;3.00;;;17.50;58.50;;;;;;10449901;28;20841;-70
2021/12/22 16:50:31;;;;;;;4.17;3.13;;;17.50;58.50;;;;;;10435231;28;20727;-69
2021/12/22 16:55:53;;;;;;;3.63;3.10;;;17.50;58.50;;;;;;10455943;28;20213;-70
2021/12/22 17:01:17;;;;;;;4.03;3.20;;;17.60;58.60;;;;;;10456162;28;20217;-70
2021/12/22 17:06:43;;;;;;;3.83;3.00;;;17.50;58.50;;;;;;10454021;28;20197;-70
2021/12/22 17:12:07;;;;;;;3.73;2.73;;;17.50;58.60;;;;;;10449396;28;20770;-70
2021/12/22 17:17:32;;;;;;;4.00;3.10;;;17.50;58.60;;;;;;10452063;28;20225;-70
2021/12/22 17:22:54;;;;;;;4.20;3.03;;;17.50;58.60;;;;;;10456202;28;20232;-70
2021/12/22 17:28:16;;;;;;;4.30;2.77;;;17.50;58.60;;;;;;10453217;28;20193;-70
2021/12/22 17:33:40;;;;;;;3.47;2.60;;;17.60;58.70;;;;;;10453135;28;20186;-71
2021/12/22 17:39:02;;;;;;;3.43;2.70;;;17.50;58.70;;;;;;10454349;28;20233;-69
2021/12/22 17:44:24;;;;;;;2.57;2.30;;;17.50;58.80;;;;;;10450983;28;20668;-70
2021/12/22 17:49:48;;;;;;;4.33;2.90;;;17.50;58.70;;;;;;10454682;28;20213;-70
2021/12/22 17:55:11;;;;;;;3.33;2.87;;;17.50;58.80;;;;;;10453783;28;20212;-71
2021/12/22 18:00:34;;;;;;;3.60;2.43;;;17.50;58.80;;;;;;10450460;28;20224;-70
2021/12/22 18:06:09;;;;;;;3.50;2.60;;;17.50;58.80;;;;;;10449238;28;20197;-71
2021/12/22 18:11:31;;;;;;;3.03;2.60;;;17.50;58.80;;;;;;10445423;28;20224;-70
2021/12/22 18:16:54;;;;;;;3.37;2.77;;;17.50;58.80;;;;;;10441881;28;20252;-70
2021/12/22 18:22:17;;;;;;;2.90;2.40;;;17.50;58.80;;;;;;10448543;28;20228;-69
2021/12/22 18:27:40;;;;;;;2.43;2.20;;;17.50;58.80;;;;;;10454472;28;20189;-70
2021/12/22 18:33:02;;;;;;;2.53;2.33;;;17.50;58.90;;;;;;10444339;28;20204;-70
2021/12/22 18:38:27;;;;;;;3.45;2.97;;;17.50;59.00;;;;;;10444660;28;20514;-68
2021/12/22 18:43:50;;;;;;;2.97;2.50;;;18.30;56.60;;;;;;10442789;28;20545;-70
2021/12/22 18:49:16;;;;;;;3.25;2.95;;;17.90;58.10;;;;;;10441913;28;20416;-70
2021/12/22 18:54:42;;;;;;;3.03;2.40;;;18.30;57.00;;;;;;10439946;28;20340;-70
2021/12/22 19:00:05;;;;;;;3.07;2.50;;;17.90;58.30;;;;;;10445145;28;20754;-70
2021/12/22 19:05:28;;;;;;;3.20;2.10;;;17.80;59.00;;;;;;10444781;28;20208;-69
2021/12/22 19:10:53;;;;;;;3.30;2.57;;;17.70;59.30;;;;;;10437357;28;20256;-69
2021/12/22 19:16:15;;;;;;;3.13;2.50;;;17.70;59.40;;;;;;10443367;28;20213;-70
2021/12/22 19:21:37;;;;;;;3.07;2.40;;;17.70;59.60;;;;;;10436819;28;20221;-71
2021/12/22 19:27:01;;;;;;;3.20;2.47;;;17.60;59.50;;;;;;10442308;28;20576;-73
2021/12/22 19:32:23;;;;;;;2.77;2.40;;;17.60;59.50;;;;;;10410425;28;20221;-72
2021/12/22 19:37:45;;;;;;;2.40;2.20;;;17.60;59.60;;;;;;10427476;28;20220;-73
2021/12/22 19:43:09;;;;;;;2.60;2.40;;;17.60;59.50;;;;;;10438430;28;20197;-70
2021/12/22 19:48:31;;;;;;;4.23;2.73;;;17.60;59.50;;;;;;10444669;28;20706;-71
2021/12/22 19:53:54;;;;;;;3.23;2.87;;;17.60;58.40;;;;;;10443593;28;20208;-71
2021/12/22 19:59:17;;;;;;;3.63;3.03;;;17.50;59.00;;;;;;10439195;28;20217;-71
2021/12/22 20:04:41;;;;;;;2.93;2.63;;;17.60;59.10;;;;;;10436776;28;20208;-70
2021/12/22 20:10:04;;;;;;;2.67;2.47;;;17.60;59.10;;;;;;10441291;28;20208;-70
2021/12/22 20:15:30;;;;;;;2.60;2.27;;;17.60;59.10;;;;;;10444162;28;20206;-71
2021/12/22 20:20:52;;;;;;;2.57;2.33;;;17.60;59.10;;;;;;10447006;28;20225;-71
2021/12/22 20:26:15;;;;;;;3.43;2.47;;;17.60;59.10;;;;;;10456303;28;20197;-71
2021/12/22 20:31:39;;;;;;;3.30;2.40;;;17.60;59.10;;;;;;10444818;28;20228;-70
2021/12/22 20:37:02;;;;;;;3.00;1.90;;;17.60;59.10;;;;;;10443317;28;20227;-70
2021/12/22 20:42:24;;;;;;;2.90;2.33;;;17.60;59.10;;;;;;10441788;28;20240;-69
2021/12/22 20:47:48;;;;;;;2.83;2.53;;;17.50;59.10;;;;;;10441689;22;20240;-67
2021/12/22 20:53:10;;;;;;;2.87;2.53;;;17.60;59.10;;;;;;10404809;28;20190;-66
2021/12/22 20:58:32;;;;;;;3.33;2.40;;;17.50;59.10;;;;;;10401634;28;20237;-67
2021/12/22 21:03:56;;;;;;;2.80;2.37;;;17.50;59.10;;;;;;10405126;28;20198;-67
2021/12/22 21:09:18;;;;;;;2.83;2.10;;;17.50;59.10;;;;;;10405662;28;20206;-66
2021/12/22 21:14:41;;;;;;;2.63;2.10;;;17.50;59.10;;;;;;10403299;28;20202;-66
2021/12/22 21:20:05;;;;;;;2.47;2.27;;;17.50;59.10;;;;;;10406615;28;20396;-66
2021/12/22 21:25:28;;;;;;;3.27;2.27;;;17.50;59.10;;;;;;10404832;28;20265;-67
2021/12/22 21:30:50;;;;;;;2.60;2.13;;;17.50;59.10;;;;;;10403581;28;20217;-67
2021/12/22 21:36:14;;;;;;;2.17;1.97;;;17.50;59.10;;;;;;10403776;28;20206;-67
2021/12/22 21:41:36;;;;;;;2.43;2.13;;;17.60;59.10;;;;;;10406508;28;20217;-67
2021/12/22 21:46:58;;;;;;;2.47;2.10;;;17.50;59.10;;;;;;10403454;28;20229;-67
2021/12/22 21:52:22;;;;;;;2.30;2.10;;;17.50;59.10;;;;;;10405902;28;20209;-67
2021/12/22 21:57:45;;;;;;;2.40;2.10;;;17.50;59.10;;;;;;10416763;28;20229;-67
2021/12/22 22:03:08;;;;;;;2.60;2.20;;;17.50;59.10;;;;;;10425803;28;20205;-68
2021/12/22 22:08:31;;;;;;;3.03;2.30;;;17.50;59.10;;;;;;10415286;28;20214;-67
2021/12/22 22:13:54;;;;;;;2.30;2.10;;;17.50;59.10;;;;;;10413827;28;20202;-66
2021/12/22 22:19:16;;;;;;;2.43;2.03;;;17.50;59.10;;;;;;10413305;28;20595;-66
2021/12/22 22:24:40;;;;;;;2.90;2.20;;;17.50;59.10;;;;;;10413146;28;20208;-67
2021/12/22 22:30:02;;;;;;;2.60;2.13;;;17.50;59.10;;;;;;10426939;28;20468;-67
2021/12/22 22:35:25;;;;;;;2.43;2.23;;;17.50;59.10;;;;;;10397148;28;20230;-66
2021/12/22 22:40:49;;;;;;;2.20;1.97;;;17.50;59.10;;;;;;10370669;28;20599;-67
2021/12/22 22:46:11;;;;;;;2.80;2.00;;;17.50;59.10;;;;;;10372181;28;20571;-66
2021/12/22 22:51:33;;;;;;;2.40;1.97;;;17.50;59.10;;;;;;10411228;28;20205;-66
2021/12/22 22:56:56;;;;;;;2.30;2.10;;;17.50;59.10;;;;;;10411595;28;20224;-66
2021/12/22 23:02:19;;;;;;;2.30;1.97;;;17.50;59.20;;;;;;10409779;28;20675;-66
2021/12/22 23:07:41;;;;;;;2.53;2.13;;;17.50;59.20;;;;;;10404661;28;20217;-66
2021/12/22 23:13:05;;;;;;;2.40;2.10;;;17.50;59.20;;;;;;10410369;28;20205;-66
2021/12/22 23:18:27;;;;;;;2.40;2.10;;;17.50;59.10;;;;;;10409136;28;20217;-66
2021/12/22 23:23:49;;;;;;;2.67;1.90;;;17.50;59.10;;;;;;10409246;28;20197;-65
2021/12/22 23:29:13;;;;;;;1.90;1.73;;;17.40;59.10;;;;;;10410469;28;20210;-66
2021/12/22 23:34:37;;;;;;;2.33;1.97;;;17.50;59.70;;;;;;10408835;28;20698;-66
2021/12/22 23:40:07;;;;;;;2.70;2.10;;;17.50;59.10;;;;;;10410511;28;20268;-66
2021/12/22 23:51:07;;;;;;;2.00;1.90;;;17.50;59.10;;;;;;10398527;28;20701;-66
2021/12/22 23:56:29;;;;;;;3.10;2.03;;;17.50;59.20;;;;;;10408927;28;20552;-66
